Buoy 41602

sailwx.info

Track history (hours):
 
Tides and Currents Weather Stations Pressure Air Temp Water Temp Dewpoint Dewpoint Depression Visibility Wind Speed Wind Dir Waves Ship Positions

Drifting buoy 41602

Last reported at 2014-Aug-22 01:00 UTC. Time now 2014-Aug-22 03:56 UTC.
Position N 28°28' W 047°46'.

Date/timePositionNaut miles runAvg speedWind from/ knotsBaromVisibWave heightAir tempDewpointWater temp
2014-Aug-22 01:00N 28°28' W 047°46'0 0.2
2014-Aug-22 00:30N 28°28' W 047°46'1 0.1
2014-Aug-21 19:31N 28°29' W 047°45'0 0.0
2014-Aug-21 19:01N 28°29' W 047°45'0 0.2
2014-Aug-21 18:31N 28°29' W 047°45'0 0.3
2014-Aug-21 18:01N 28°29' W 047°45'1 0.3
2014-Aug-21 13:31N 28°28' W 047°44'0 0.4
2014-Aug-21 13:01N 28°28' W 047°43'1 0.3
2014-Aug-21 11:00N 28°29' W 047°43'0 0.3
2014-Aug-21 10:30N 28°29' W 047°43'0 0.3
2014-Aug-21 10:01N 28°29' W 047°43'0 0.1
2014-Aug-21 07:00N 28°29' W 047°42'0 0.1
2014-Aug-21 06:31N 28°30' W 047°42'0 0.1
2014-Aug-21 06:01N 28°30' W 047°42'0 0.1
2014-Aug-21 01:31N 28°30' W 047°42'0 0.2
2014-Aug-21 01:01N 28°30' W 047°42'0 0.1
2014-Aug-20 23:01N 28°30' W 047°42'1 0.3
2014-Aug-20 18:00N 28°29' W 047°43'0 0.6
2014-Aug-20 17:30N 28°29' W 047°43'0 0.5
2014-Aug-20 17:01N 28°28' W 047°43'0 0.6
2014-Aug-20 16:31N 28°28' W 047°43'0 0.6
2014-Aug-20 16:01N 28°28' W 047°43'2 0.5
2014-Aug-20 12:31N 28°26' W 047°42'0 0.3
2014-Aug-20 12:01N 28°26' W 047°42'1 0.4
2014-Aug-20 10:01N 28°27' W 047°41'0 0.3
2014-Aug-20 09:31N 28°27' W 047°41'0 0.2
2014-Aug-20 09:01N 28°27' W 047°41'1 0.1
2014-Aug-20 03:31N 28°28' W 047°41'0 0.1
2014-Aug-20 03:01N 28°28' W 047°41'0 0.1
2014-Aug-20 01:01N 28°27' W 047°41'0 0.2
2014-Aug-20 00:31N 28°27' W 047°40'0 0.2
2014-Aug-20 00:01N 28°27' W 047°40'0 0.1
2014-Aug-19 23:01N 28°27' W 047°40'0 0.1
2014-Aug-19 22:31N 28°27' W 047°40'0 0.1
2014-Aug-19 22:01N 28°27' W 047°40'0 0.1
2014-Aug-19 21:30N 28°27' W 047°40'0 0.4
2014-Aug-19 21:00N 28°27' W 047°40'0 0.4
2014-Aug-19 20:01N 28°27' W 047°40'0 0.4
2014-Aug-19 19:00N 28°26' W 047°40'0 0.5
2014-Aug-19 18:31N 28°26' W 047°40'0 0.4
2014-Aug-19 18:01N 28°26' W 047°40'2 0.6
2014-Aug-19 15:01N 28°25' W 047°38'0 0.6
2014-Aug-19 14:31N 28°25' W 047°38'1 0.5
2014-Aug-19 13:01N 28°25' W 047°37'0 0.4
2014-Aug-19 12:31N 28°25' W 047°37'0 0.4
2014-Aug-19 12:01N 28°25' W 047°36'2 0.4
2014-Aug-19 07:31N 28°26' W 047°35'0 0.5
2014-Aug-19 07:00N 28°26' W 047°35'0 0.3
2014-Aug-19 06:30N 28°26' W 047°35'1 0.2
2014-Aug-19 04:01N 28°27' W 047°35'0 0.1
2014-Aug-19 01:01N 28°27' W 047°35'0 0.2
2014-Aug-19 00:31N 28°27' W 047°35'0 0.2
2014-Aug-18 23:00N 28°27' W 047°35'4 0.4
2014-Aug-18 13:01N 28°27' W 047°30'1 0.5
2014-Aug-18 11:01N 28°27' W 047°29'1 0.4
2014-Aug-18 09:31N 28°28' W 047°29'0 0.5
2014-Aug-18 09:01N 28°28' W 047°28'1 0.5
2014-Aug-18 07:31N 28°29' W 047°28'0 0.4
2014-Aug-18 07:01N 28°29' W 047°28'0 0.2
2014-Aug-18 05:31N 28°29' W 047°28'0 0.3
2014-Aug-18 05:01N 28°29' W 047°27'0 0.3
2014-Aug-18 04:31N 28°29' W 047°27'0 0.2
2014-Aug-18 04:01N 28°29' W 047°27'0 0.2
2014-Aug-18 03:31N 28°29' W 047°27'0 0.2
2014-Aug-18 03:01N 28°29' W 047°27'0 0.3
2014-Aug-18 01:31N 28°30' W 047°27'0 0.2
2014-Aug-18 01:01N 28°30' W 047°27'1 0.3
2014-Aug-17 22:00N 28°30' W 047°26'0 0.2
2014-Aug-17 21:30N 28°30' W 047°26'0 0.4
2014-Aug-17 21:01N 28°30' W 047°26'0 0.2
2014-Aug-17 20:30N 28°30' W 047°26'0 0.4
2014-Aug-17 20:00N 28°30' W 047°26'0 0.2
2014-Aug-17 19:01N 28°30' W 047°25'0 0.4
2014-Aug-17 18:31N 28°30' W 047°25'0 0.3
2014-Aug-17 18:00N 28°31' W 047°25'0 0.3
2014-Aug-17 17:30N 28°31' W 047°25'0 0.5
2014-Aug-17 17:01N 28°31' W 047°25'1 0.4
2014-Aug-17 15:30N 28°31' W 047°24'0 0.7
2014-Aug-17 15:01N 28°31' W 047°24'1 0.6
2014-Aug-17 13:31N 28°31' W 047°23'0 0.4
2014-Aug-17 13:01N 28°31' W 047°23'0 0.5
2014-Aug-17 12:30N 28°32' W 047°22'0 0.5
2014-Aug-17 12:00N 28°32' W 047°22'1 0.4
2014-Aug-17 08:01N 28°33' W 047°21'1 0.3
2014-Aug-17 05:31N 28°34' W 047°21'0 0.4
2014-Aug-17 05:01N 28°34' W 047°21'0 0.4
2014-Aug-17 04:00N 28°34' W 047°21'1 0.4
2014-Aug-17 01:01N 28°35' W 047°21'0 0.2
2014-Aug-17 00:31N 28°36' W 047°21'0 0.2
2014-Aug-17 00:00N 28°36' W 047°21'0 0.2
2014-Aug-16 23:30N 28°36' W 047°21'0 0.3
2014-Aug-16 23:00N 28°36' W 047°21'0 0.2
2014-Aug-16 22:31N 28°36' W 047°21'0 0.2
2014-Aug-16 22:01N 28°36' W 047°21'0 0.3
2014-Aug-16 21:00N 28°36' W 047°21'0 0.2
2014-Aug-16 19:30N 28°36' W 047°22'0 0.1
2014-Aug-16 19:00N 28°37' W 047°22'0 0.1
2014-Aug-16 18:31N 28°37' W 047°22'0 0.2
2014-Aug-16 18:01N 28°37' W 047°22'0 0.4
2014-Aug-16 17:00N 28°37' W 047°22'1 0.6
2014-Aug-16 15:31N 28°38' W 047°22'0 0.6
2014-Aug-16 15:01N 28°38' W 047°22'0 0.5
2014-Aug-16 14:30N 28°39' W 047°22'0 0.5
2014-Aug-16 14:00N 28°39' W 047°22'1 0.4
2014-Aug-16 12:00N 28°40' W 047°22'1 0.4
2014-Aug-16 10:00N 28°40' W 047°22'0 0.5
2014-Aug-16 09:30N 28°41' W 047°23'0 0.4
2014-Aug-16 09:00N 28°41' W 047°23'0 0.3
2014-Aug-16 08:30N 28°41' W 047°23'0 0.5
2014-Aug-16 08:01N 28°41' W 047°23'0 0.5
2014-Aug-16 07:31N 28°41' W 047°23'0 0.3
2014-Aug-16 06:31N 28°41' W 047°24'0 0.2
2014-Aug-16 06:00N 28°41' W 047°24'0 0.3
2014-Aug-16 05:30N 28°41' W 047°24'0 0.4
2014-Aug-16 05:00N 28°42' W 047°24'2 0.3
2014-Aug-16 00:00N 28°43' W 047°25'0 0.5
2014-Aug-15 23:00N 28°43' W 047°25'0 0.6
2014-Aug-15 22:30N 28°44' W 047°25'0 0.6
2014-Aug-15 22:01N 28°44' W 047°26'0 0.7
2014-Aug-15 21:31N 28°44' W 047°26'0 0.7
2014-Aug-15 21:01N 28°44' W 047°26'1 0.7
2014-Aug-15 19:01N 28°45' W 047°28'0 0.7
2014-Aug-15 18:31N 28°45' W 047°28'0 0.5
2014-Aug-15 18:00N 28°45' W 047°29'0 0.5
2014-Aug-15 17:30N 28°45' W 047°29'0 0.5
2014-Aug-15 17:00N 28°45' W 047°29'1 0.5
2014-Aug-15 15:31N 28°45' W 047°30'0 0.2
2014-Aug-15 15:01N 28°45' W 047°30'0 0.2
2014-Aug-15 14:31N 28°45' W 047°30'0 0.2
2014-Aug-15 14:01N 28°45' W 047°30'0 0.2
2014-Aug-15 12:31N 28°45' W 047°30'0 0.3
2014-Aug-15 12:01N 28°45' W 047°30'0 0.5
2014-Aug-15 11:30N 28°46' W 047°31'0 0.5
2014-Aug-15 11:00N 28°46' W 047°31'1 0.4
2014-Aug-15 07:30N 28°47' W 047°32'0 0.6
2014-Aug-15 07:01N 28°47' W 047°32'0 0.5
2014-Aug-15 06:31N 28°47' W 047°33'0 0.5
2014-Aug-15 06:01N 28°47' W 047°33'1 0.3
2014-Aug-15 04:01N 28°47' W 047°34'2 0.4
2014-Aug-14 23:01N 28°48' W 047°35'0 0.5
2014-Aug-14 22:01N 28°48' W 047°36'1 0.5
2014-Aug-14 20:31N 28°48' W 047°37'0 0.7
2014-Aug-14 20:01N 28°49' W 047°37'2 0.8
2014-Aug-14 18:01N 28°49' W 047°39'1 0.6
2014-Aug-14 16:00N 28°49' W 047°40'1 0.3
2014-Aug-14 12:01N 28°48' W 047°41'0 0.2
2014-Aug-14 11:31N 28°48' W 047°41'0 0.2
2014-Aug-14 11:01N 28°48' W 047°41'0 0.2
2014-Aug-14 08:31N 28°48' W 047°42'0 0.2
2014-Aug-14 08:01N 28°48' W 047°42'0 0.2
2014-Aug-14 06:01N 28°48' W 047°42'0 0.1
2014-Aug-14 04:31N 28°48' W 047°42'0 0.4
2014-Aug-14 04:01N 28°49' W 047°42'0 0.3
2014-Aug-14 03:31N 28°49' W 047°42'0 0.4
2014-Aug-14 03:01N 28°49' W 047°43'1 0.4
2014-Aug-14 00:31N 28°49' W 047°44'0 0.4
2014-Aug-14 00:01N 28°49' W 047°44'0 0.4
2014-Aug-13 23:30N 28°50' W 047°44'0 0.4
2014-Aug-13 23:00N 28°50' W 047°44'2 0.4
2014-Aug-13 18:31N 28°50' W 047°46'0 0.5
2014-Aug-13 18:01N 28°50' W 047°46'2 0.3
2014-Aug-13 12:30N 28°49' W 047°49'0 0.2
2014-Aug-13 12:00N 28°49' W 047°48'3 0.3
2014-Aug-13 03:31N 28°51' W 047°50'0 0.5
2014-Aug-13 03:01N 28°51' W 047°51'1 0.5
2014-Aug-13 00:01N 28°52' W 047°52'1 0.5
2014-Aug-12 23:01N 28°52' W 047°53'0 0.6
2014-Aug-12 22:31N 28°52' W 047°53'1 0.7
2014-Aug-12 21:01N 28°52' W 047°54'1 0.7
2014-Aug-12 20:01N 28°52' W 047°55'2 0.6
2014-Aug-12 16:01N 28°50' W 047°57'1 0.2
2014-Aug-12 13:31N 28°49' W 047°57'0 0.0
2014-Aug-12 13:01N 28°49' W 047°57'0 0.2
2014-Aug-12 11:01N 28°50' W 047°57'0 0.3 -0.0
2014-Aug-12 10:31N 28°50' W 047°57'1 0.3 -0.0
2014-Aug-12 07:31N 28°50' W 047°58'0 0.3 -0.0
2014-Aug-12 07:01N 28°50' W 047°59'0 0.3 -0.0
2014-Aug-12 06:31N 28°50' W 047°59'0 0.3 -0.0
2014-Aug-12 06:01N 28°50' W 047°59'3 0.6 -0.0
2014-Aug-12 01:00N 28°50' W 048°02'   -0.0
Track history (hours):
 
Tides and Currents Weather Stations Pressure Air Temp Water Temp Dewpoint Dewpoint Depression Visibility Wind Speed Wind Dir Waves Ship Positions

Drifting buoy 41602

Last reported at 2014-Aug-22 01:00 UTC. Time now 2014-Aug-22 03:56 UTC.
Position N 28°28' W 047°46'.

Date/timePositionNaut miles runAvg speedWind from/ knotsBaromVisibWave heightAir tempDewpointWater temp
2014-Aug-22 01:00N 28°28' W 047°46'0 0.2
2014-Aug-22 00:30N 28°28' W 047°46'1 0.1
2014-Aug-21 19:31N 28°29' W 047°45'0 0.0
2014-Aug-21 19:01N 28°29' W 047°45'0 0.2
2014-Aug-21 18:31N 28°29' W 047°45'0 0.3
2014-Aug-21 18:01N 28°29' W 047°45'1 0.3
2014-Aug-21 13:31N 28°28' W 047°44'0 0.4
2014-Aug-21 13:01N 28°28' W 047°43'1 0.3
2014-Aug-21 11:00N 28°29' W 047°43'0 0.3
2014-Aug-21 10:30N 28°29' W 047°43'0 0.3
2014-Aug-21 10:01N 28°29' W 047°43'0 0.1
2014-Aug-21 07:00N 28°29' W 047°42'0 0.1
2014-Aug-21 06:31N 28°30' W 047°42'0 0.1
2014-Aug-21 06:01N 28°30' W 047°42'0 0.1
2014-Aug-21 01:31N 28°30' W 047°42'0 0.2
2014-Aug-21 01:01N 28°30' W 047°42'0 0.1
2014-Aug-20 23:01N 28°30' W 047°42'1 0.3
2014-Aug-20 18:00N 28°29' W 047°43'0 0.6
2014-Aug-20 17:30N 28°29' W 047°43'0 0.5
2014-Aug-20 17:01N 28°28' W 047°43'0 0.6
2014-Aug-20 16:31N 28°28' W 047°43'0 0.6
2014-Aug-20 16:01N 28°28' W 047°43'2 0.5
2014-Aug-20 12:31N 28°26' W 047°42'0 0.3
2014-Aug-20 12:01N 28°26' W 047°42'1 0.4
2014-Aug-20 10:01N 28°27' W 047°41'0 0.3
2014-Aug-20 09:31N 28°27' W 047°41'0 0.2
2014-Aug-20 09:01N 28°27' W 047°41'1 0.1
2014-Aug-20 03:31N 28°28' W 047°41'0 0.1
2014-Aug-20 03:01N 28°28' W 047°41'0 0.1
2014-Aug-20 01:01N 28°27' W 047°41'0 0.2
2014-Aug-20 00:31N 28°27' W 047°40'0 0.2
2014-Aug-20 00:01N 28°27' W 047°40'0 0.1
2014-Aug-19 23:01N 28°27' W 047°40'0 0.1
2014-Aug-19 22:31N 28°27' W 047°40'0 0.1
2014-Aug-19 22:01N 28°27' W 047°40'0 0.1
2014-Aug-19 21:30N 28°27' W 047°40'0 0.4
2014-Aug-19 21:00N 28°27' W 047°40'0 0.4
2014-Aug-19 20:01N 28°27' W 047°40'0 0.4
2014-Aug-19 19:00N 28°26' W 047°40'0 0.5
2014-Aug-19 18:31N 28°26' W 047°40'0 0.4
2014-Aug-19 18:01N 28°26' W 047°40'2 0.6
2014-Aug-19 15:01N 28°25' W 047°38'0 0.6
2014-Aug-19 14:31N 28°25' W 047°38'1 0.5
2014-Aug-19 13:01N 28°25' W 047°37'0 0.4
2014-Aug-19 12:31N 28°25' W 047°37'0 0.4
2014-Aug-19 12:01N 28°25' W 047°36'2 0.4
2014-Aug-19 07:31N 28°26' W 047°35'0 0.5
2014-Aug-19 07:00N 28°26' W 047°35'0 0.3
2014-Aug-19 06:30N 28°26' W 047°35'1 0.2
2014-Aug-19 04:01N 28°27' W 047°35'0 0.1
2014-Aug-19 01:01N 28°27' W 047°35'0 0.2
2014-Aug-19 00:31N 28°27' W 047°35'0 0.2
2014-Aug-18 23:00N 28°27' W 047°35'4 0.4
2014-Aug-18 13:01N 28°27' W 047°30'1 0.5
2014-Aug-18 11:01N 28°27' W 047°29'1 0.4
2014-Aug-18 09:31N 28°28' W 047°29'0 0.5
2014-Aug-18 09:01N 28°28' W 047°28'1 0.5
2014-Aug-18 07:31N 28°29' W 047°28'0 0.4
2014-Aug-18 07:01N 28°29' W 047°28'0 0.2
2014-Aug-18 05:31N 28°29' W 047°28'0 0.3
2014-Aug-18 05:01N 28°29' W 047°27'0 0.3
2014-Aug-18 04:31N 28°29' W 047°27'0 0.2
2014-Aug-18 04:01N 28°29' W 047°27'0 0.2
2014-Aug-18 03:31N 28°29' W 047°27'0 0.2
2014-Aug-18 03:01N 28°29' W 047°27'0 0.3
2014-Aug-18 01:31N 28°30' W 047°27'0 0.2
2014-Aug-18 01:01N 28°30' W 047°27'1 0.3
2014-Aug-17 22:00N 28°30' W 047°26'0 0.2
2014-Aug-17 21:30N 28°30' W 047°26'0 0.4
2014-Aug-17 21:01N 28°30' W 047°26'0 0.2
2014-Aug-17 20:30N 28°30' W 047°26'0 0.4
2014-Aug-17 20:00N 28°30' W 047°26'0 0.2
2014-Aug-17 19:01N 28°30' W 047°25'0 0.4
2014-Aug-17 18:31N 28°30' W 047°25'0 0.3
2014-Aug-17 18:00N 28°31' W 047°25'0 0.3
2014-Aug-17 17:30N 28°31' W 047°25'0 0.5
2014-Aug-17 17:01N 28°31' W 047°25'1 0.4
2014-Aug-17 15:30N 28°31' W 047°24'0 0.7
2014-Aug-17 15:01N 28°31' W 047°24'1 0.6
2014-Aug-17 13:31N 28°31' W 047°23'0 0.4
2014-Aug-17 13:01N 28°31' W 047°23'0 0.5
2014-Aug-17 12:30N 28°32' W 047°22'0 0.5
2014-Aug-17 12:00N 28°32' W 047°22'1 0.4
2014-Aug-17 08:01N 28°33' W 047°21'1 0.3
2014-Aug-17 05:31N 28°34' W 047°21'0 0.4
2014-Aug-17 05:01N 28°34' W 047°21'0 0.4
2014-Aug-17 04:00N 28°34' W 047°21'1 0.4
2014-Aug-17 01:01N 28°35' W 047°21'0 0.2
2014-Aug-17 00:31N 28°36' W 047°21'0 0.2
2014-Aug-17 00:00N 28°36' W 047°21'0 0.2
2014-Aug-16 23:30N 28°36' W 047°21'0 0.3
2014-Aug-16 23:00N 28°36' W 047°21'0 0.2
2014-Aug-16 22:31N 28°36' W 047°21'0 0.2
2014-Aug-16 22:01N 28°36' W 047°21'0 0.3
2014-Aug-16 21:00N 28°36' W 047°21'0 0.2
2014-Aug-16 19:30N 28°36' W 047°22'0 0.1
2014-Aug-16 19:00N 28°37' W 047°22'0 0.1
2014-Aug-16 18:31N 28°37' W 047°22'0 0.2
2014-Aug-16 18:01N 28°37' W 047°22'0 0.4
2014-Aug-16 17:00N 28°37' W 047°22'1 0.6
2014-Aug-16 15:31N 28°38' W 047°22'0 0.6
2014-Aug-16 15:01N 28°38' W 047°22'0 0.5
2014-Aug-16 14:30N 28°39' W 047°22'0 0.5
2014-Aug-16 14:00N 28°39' W 047°22'1 0.4
2014-Aug-16 12:00N 28°40' W 047°22'1 0.4
2014-Aug-16 10:00N 28°40' W 047°22'0 0.5
2014-Aug-16 09:30N 28°41' W 047°23'0 0.4
2014-Aug-16 09:00N 28°41' W 047°23'0 0.3
2014-Aug-16 08:30N 28°41' W 047°23'0 0.5
2014-Aug-16 08:01N 28°41' W 047°23'0 0.5
2014-Aug-16 07:31N 28°41' W 047°23'0 0.3
2014-Aug-16 06:31N 28°41' W 047°24'0 0.2
2014-Aug-16 06:00N 28°41' W 047°24'0 0.3
2014-Aug-16 05:30N 28°41' W 047°24'0 0.4
2014-Aug-16 05:00N 28°42' W 047°24'2 0.3
2014-Aug-16 00:00N 28°43' W 047°25'0 0.5
2014-Aug-15 23:00N 28°43' W 047°25'0 0.6
2014-Aug-15 22:30N 28°44' W 047°25'0 0.6
2014-Aug-15 22:01N 28°44' W 047°26'0 0.7
2014-Aug-15 21:31N 28°44' W 047°26'0 0.7
2014-Aug-15 21:01N 28°44' W 047°26'1 0.7
2014-Aug-15 19:01N 28°45' W 047°28'0 0.7
2014-Aug-15 18:31N 28°45' W 047°28'0 0.5
2014-Aug-15 18:00N 28°45' W 047°29'0 0.5
2014-Aug-15 17:30N 28°45' W 047°29'0 0.5
2014-Aug-15 17:00N 28°45' W 047°29'1 0.5
2014-Aug-15 15:31N 28°45' W 047°30'0 0.2
2014-Aug-15 15:01N 28°45' W 047°30'0 0.2
2014-Aug-15 14:31N 28°45' W 047°30'0 0.2
2014-Aug-15 14:01N 28°45' W 047°30'0 0.2
2014-Aug-15 12:31N 28°45' W 047°30'0 0.3
2014-Aug-15 12:01N 28°45' W 047°30'0 0.5
2014-Aug-15 11:30N 28°46' W 047°31'0 0.5
2014-Aug-15 11:00N 28°46' W 047°31'1 0.4
2014-Aug-15 07:30N 28°47' W 047°32'0 0.6
2014-Aug-15 07:01N 28°47' W 047°32'0 0.5
2014-Aug-15 06:31N 28°47' W 047°33'0 0.5
2014-Aug-15 06:01N 28°47' W 047°33'1 0.3
2014-Aug-15 04:01N 28°47' W 047°34'2 0.4
2014-Aug-14 23:01N 28°48' W 047°35'0 0.5
2014-Aug-14 22:01N 28°48' W 047°36'1 0.5
2014-Aug-14 20:31N 28°48' W 047°37'0 0.7
2014-Aug-14 20:01N 28°49' W 047°37'2 0.8
2014-Aug-14 18:01N 28°49' W 047°39'1 0.6
2014-Aug-14 16:00N 28°49' W 047°40'1 0.3
2014-Aug-14 12:01N 28°48' W 047°41'0 0.2
2014-Aug-14 11:31N 28°48' W 047°41'0 0.2
2014-Aug-14 11:01N 28°48' W 047°41'0 0.2
2014-Aug-14 08:31N 28°48' W 047°42'0 0.2
2014-Aug-14 08:01N 28°48' W 047°42'0 0.2
2014-Aug-14 06:01N 28°48' W 047°42'0 0.1
2014-Aug-14 04:31N 28°48' W 047°42'0 0.4
2014-Aug-14 04:01N 28°49' W 047°42'0 0.3
2014-Aug-14 03:31N 28°49' W 047°42'0 0.4
2014-Aug-14 03:01N 28°49' W 047°43'1 0.4
2014-Aug-14 00:31N 28°49' W 047°44'0 0.4
2014-Aug-14 00:01N 28°49' W 047°44'0 0.4
2014-Aug-13 23:30N 28°50' W 047°44'0 0.4
2014-Aug-13 23:00N 28°50' W 047°44'2 0.4
2014-Aug-13 18:31N 28°50' W 047°46'0 0.5
2014-Aug-13 18:01N 28°50' W 047°46'2 0.3
2014-Aug-13 12:30N 28°49' W 047°49'0 0.2
2014-Aug-13 12:00N 28°49' W 047°48'3 0.3
2014-Aug-13 03:31N 28°51' W 047°50'0 0.5
2014-Aug-13 03:01N 28°51' W 047°51'1 0.5
2014-Aug-13 00:01N 28°52' W 047°52'1 0.5
2014-Aug-12 23:01N 28°52' W 047°53'0 0.6
2014-Aug-12 22:31N 28°52' W 047°53'1 0.7
2014-Aug-12 21:01N 28°52' W 047°54'1 0.7
2014-Aug-12 20:01N 28°52' W 047°55'2 0.6
2014-Aug-12 16:01N 28°50' W 047°57'1 0.2
2014-Aug-12 13:31N 28°49' W 047°57'0 0.0
2014-Aug-12 13:01N 28°49' W 047°57'0 0.2
2014-Aug-12 11:01N 28°50' W 047°57'0 0.3 -0.0
2014-Aug-12 10:31N 28°50' W 047°57'1 0.3 -0.0
2014-Aug-12 07:31N 28°50' W 047°58'0 0.3 -0.0
2014-Aug-12 07:01N 28°50' W 047°59'0 0.3 -0.0
2014-Aug-12 06:31N 28°50' W 047°59'0 0.3 -0.0
2014-Aug-12 06:01N 28°50' W 047°59'3 0.6 -0.0
2014-Aug-12 01:00N 28°50' W 048°02'   -0.0

Dump ship's entire track history